Time;durP1;ratioP1;P1;durP2;ratioP2;P2;SDS_P1;SDS_P2;PMS_P1;PMS_P2;Temp;Humidity;BMP_temperature;BMP_pressure;BME280_temperature;BME280_humidity;BME280_pressure;Samples;Min_cycle;Max_cycle;Signal;HPM_P1;HPM_P2
2022/06/30 00:01:02;;;;;;;7.75;3.13;;;19.90;99.90;;;;;;4918352;29;20088;-80
2022/06/30 00:03:27;;;;;;;7.15;2.67;;;19.80;99.90;;;;;;4918329;29;20051;-80
2022/06/30 00:05:53;;;;;;;5.30;2.20;;;19.80;99.90;;;;;;4918812;29;20506;-80
2022/06/30 00:08:18;;;;;;;7.40;2.40;;;19.80;99.90;;;;;;4918745;29;20115;-80
2022/06/30 00:10:44;;;;;;;8.20;2.60;;;19.80;99.90;;;;;;4917899;29;20055;-80
2022/06/30 00:13:11;;;;;;;10.98;2.40;;;19.90;99.90;;;;;;4918822;29;20088;-80
2022/06/30 00:15:37;;;;;;;6.28;2.53;;;19.80;99.90;;;;;;4918349;29;20029;-79
2022/06/30 00:18:03;;;;;;;4.60;2.10;;;19.70;99.90;;;;;;4918239;29;20084;-80
2022/06/30 00:20:29;;;;;;;14.52;2.33;;;19.70;99.90;;;;;;4918072;29;20442;-80
2022/06/30 00:22:54;;;;;;;6.43;2.53;;;19.70;99.90;;;;;;4918485;29;20021;-80
2022/06/30 00:25:20;;;;;;;8.95;2.22;;;19.70;99.90;;;;;;4918118;29;20052;-80
2022/06/30 00:27:47;;;;;;;10.43;2.80;;;19.60;99.90;;;;;;4916488;29;20123;-80
2022/06/30 00:30:12;;;;;;;7.75;1.85;;;19.60;99.90;;;;;;4916934;29;20032;-80
2022/06/30 00:32:38;;;;;;;6.32;2.00;;;19.50;99.90;;;;;;4918125;29;20036;-80
2022/06/30 00:35:04;;;;;;;6.50;2.05;;;19.50;99.90;;;;;;4918412;29;20032;-80
2022/06/30 00:37:30;;;;;;;6.75;2.00;;;19.50;99.90;;;;;;4918335;29;20392;-80
2022/06/30 00:39:55;;;;;;;5.38;2.35;;;19.40;99.90;;;;;;4916953;29;20094;-80
2022/06/30 00:42:21;;;;;;;5.22;1.90;;;19.30;99.90;;;;;;4917043;29;20032;-80
2022/06/30 00:44:47;;;;;;;5.78;2.00;;;19.40;99.90;;;;;;4916012;29;20125;-79
2022/06/30 00:47:13;;;;;;;8.05;2.28;;;19.40;99.90;;;;;;4917084;29;20478;-80
2022/06/30 00:49:39;;;;;;;8.25;2.38;;;19.40;99.90;;;;;;4917982;29;20040;-80
2022/06/30 00:52:09;;;;;;;7.78;2.55;;;19.30;99.90;;;;;;4917900;29;20037;-80
2022/06/30 00:54:36;;;;;;;9.98;2.40;;;19.30;99.90;;;;;;4916725;29;20028;-80
2022/06/30 00:57:03;;;;;;;6.82;2.45;;;19.20;99.90;;;;;;4915942;29;20391;-79
2022/06/30 00:59:30;;;;;;;7.70;2.10;;;19.20;99.90;;;;;;4917330;29;20016;-80
2022/06/30 01:02:01;;;;;;;8.80;2.25;;;19.20;99.90;;;;;;4917920;29;20027;-80
2022/06/30 01:04:29;;;;;;;8.38;1.77;;;19.10;99.90;;;;;;4917817;29;20103;-80
2022/06/30 01:06:55;;;;;;;10.32;2.15;;;19.10;99.90;;;;;;4917728;29;20389;-80
2022/06/30 01:14:52;;;;;;;5.65;2.05;;;18.90;99.90;;;;;;4917767;29;20492;-80
2022/06/30 01:17:17;;;;;;;7.57;2.03;;;18.80;99.90;;;;;;4916759;29;20084;-80
2022/06/30 01:19:56;;;;;;;10.45;2.15;;;18.80;99.90;;;;;;4917043;29;20032;-79
2022/06/30 01:22:22;;;;;;;4.88;1.90;;;18.80;99.90;;;;;;4917219;29;20436;-80
2022/06/30 01:24:48;;;;;;;8.48;2.05;;;18.80;99.90;;;;;;4917204;29;20020;-79
2022/06/30 01:27:14;;;;;;;5.57;1.80;;;18.80;99.90;;;;;;4915464;29;20127;-79
2022/06/30 01:29:40;;;;;;;7.53;2.08;;;18.70;99.90;;;;;;4917398;29;20111;-80
2022/06/30 01:32:06;;;;;;;5.55;1.95;;;18.70;99.90;;;;;;4916834;29;20477;-80
2022/06/30 01:34:31;;;;;;;7.28;2.00;;;18.50;99.90;;;;;;4917006;29;20030;-79
2022/06/30 01:36:59;;;;;;;13.15;2.00;;;18.60;99.90;;;;;;4916167;29;20028;-80
2022/06/30 01:39:25;;;;;;;7.65;1.90;;;18.60;99.90;;;;;;4917312;29;20396;-80
2022/06/30 01:41:51;;;;;;;7.35;2.60;;;18.50;99.90;;;;;;4916556;29;20024;-80
2022/06/30 01:44:17;;;;;;;6.72;2.10;;;18.50;99.90;;;;;;4916878;29;20082;-80
2022/06/30 01:46:50;;;;;;;6.72;2.03;;;18.50;99.90;;;;;;4916023;29;20048;-80
2022/06/30 01:49:16;;;;;;;7.53;2.13;;;18.50;99.90;;;;;;4916815;29;20087;-80
2022/06/30 01:51:42;;;;;;;5.82;1.90;;;18.50;99.90;;;;;;4916649;29;20028;-80
2022/06/30 01:54:08;;;;;;;8.55;2.03;;;18.50;99.90;;;;;;4916280;29;20043;-80
2022/06/30 01:56:35;;;;;;;11.13;2.38;;;18.50;99.90;;;;;;4916383;29;20059;-79
2022/06/30 01:59:01;;;;;;;10.60;2.10;;;18.50;99.90;;;;;;4916291;29;20127;-80
2022/06/30 02:01:26;;;;;;;10.80;2.25;;;18.50;99.90;;;;;;4915373;29;20153;-79
2022/06/30 02:03:52;;;;;;;7.85;1.70;;;18.40;99.90;;;;;;4916684;29;20028;-80
2022/06/30 02:06:18;;;;;;;8.38;2.38;;;18.40;99.90;;;;;;4916241;29;20024;-81
2022/06/30 02:08:44;;;;;;;8.02;2.15;;;18.50;99.90;;;;;;4916573;29;20041;-80
2022/06/30 02:11:10;;;;;;;8.00;2.28;;;18.40;99.90;;;;;;4916288;29;20516;-81
2022/06/30 02:13:36;;;;;;;5.45;2.03;;;18.40;99.90;;;;;;4916078;29;20036;-80
2022/06/30 02:16:01;;;;;;;6.72;2.10;;;18.50;99.90;;;;;;4916069;29;20035;-80
2022/06/30 02:18:27;;;;;;;8.77;2.30;;;18.50;99.90;;;;;;4916110;29;20032;-80
2022/06/30 02:20:53;;;;;;;7.20;2.28;;;18.40;99.90;;;;;;4916051;29;20099;-81
2022/06/30 02:23:18;;;;;;;13.48;2.05;;;18.30;99.90;;;;;;4916601;29;20076;-81
2022/06/30 02:25:44;;;;;;;7.35;2.17;;;18.20;99.90;;;;;;4915878;29;20028;-81
2022/06/30 02:28:10;;;;;;;6.70;2.15;;;18.20;99.90;;;;;;4916142;29;20068;-81
2022/06/30 02:30:36;;;;;;;10.07;1.95;;;18.30;99.90;;;;;;4916586;29;20035;-81
2022/06/30 02:33:02;;;;;;;9.38;2.20;;;18.20;99.90;;;;;;4916327;29;20036;-80
2022/06/30 02:35:28;;;;;;;9.52;2.67;;;18.20;99.90;;;;;;4915236;29;20407;-80
2022/06/30 02:37:54;;;;;;;6.68;2.28;;;18.10;99.90;;;;;;4916417;29;20476;-80
2022/06/30 02:40:20;;;;;;;11.23;2.67;;;18.10;99.90;;;;;;4914632;29;20056;-80
2022/06/30 02:42:46;;;;;;;10.38;2.03;;;18.00;99.90;;;;;;4916222;29;20027;-80
2022/06/30 02:45:12;;;;;;;9.10;2.42;;;18.00;99.90;;;;;;4916089;29;20021;-80
2022/06/30 02:47:40;;;;;;;11.50;2.75;;;18.00;99.90;;;;;;4916192;29;20043;-80
2022/06/30 02:50:09;;;;;;;7.43;2.05;;;18.10;99.90;;;;;;4914920;29;20025;-80
2022/06/30 02:52:36;;;;;;;10.85;2.20;;;18.10;99.90;;;;;;4916468;29;20032;-80
2022/06/30 02:55:03;;;;;;;11.05;2.42;;;18.00;99.90;;;;;;4915794;29;20051;-80
2022/06/30 02:57:29;;;;;;;12.32;3.03;;;18.10;99.90;;;;;;4914647;29;20036;-80
2022/06/30 02:59:55;;;;;;;10.70;2.38;;;18.00;99.90;;;;;;4916406;29;20389;-80
2022/06/30 03:02:21;;;;;;;6.60;2.03;;;17.80;99.90;;;;;;4914978;29;20127;-80
2022/06/30 03:04:47;;;;;;;10.27;2.55;;;17.80;99.90;;;;;;4915305;29;20164;-80
2022/06/30 03:07:13;;;;;;;10.15;2.10;;;17.90;99.90;;;;;;4914772;29;20400;-80
2022/06/30 03:09:39;;;;;;;10.77;2.50;;;17.90;99.90;;;;;;4915984;29;20079;-80
2022/06/30 03:12:05;;;;;;;5.68;2.20;;;17.90;99.90;;;;;;4919653;29;20106;-80
2022/06/30 03:14:31;;;;;;;10.00;2.50;;;17.80;99.90;;;;;;4920106;29;20032;-80
2022/06/30 03:16:56;;;;;;;10.32;2.28;;;17.80;99.90;;;;;;4919806;29;20035;-80
2022/06/30 03:19:22;;;;;;;9.52;2.33;;;17.80;99.90;;;;;;4918509;29;20037;-80
2022/06/30 03:21:48;;;;;;;14.70;2.55;;;17.80;99.90;;;;;;4919440;29;20024;-80
2022/06/30 03:24:13;;;;;;;8.38;2.30;;;17.80;99.90;;;;;;4919011;29;20490;-80
2022/06/30 03:26:39;;;;;;;16.92;3.15;;;17.80;99.90;;;;;;4918353;29;20493;-80
2022/06/30 03:29:05;;;;;;;11.65;2.58;;;17.80;99.90;;;;;;4918169;29;20461;-81
2022/06/30 03:31:31;;;;;;;8.60;2.45;;;17.90;99.90;;;;;;4919617;29;20024;-80
2022/06/30 03:33:57;;;;;;;7.95;2.45;;;17.80;99.90;;;;;;4919713;29;20028;-80
2022/06/30 03:36:23;;;;;;;8.30;1.80;;;17.80;99.90;;;;;;4919376;29;20028;-80
2022/06/30 03:38:48;;;;;;;8.57;1.95;;;17.70;99.90;;;;;;4918607;29;20088;-80
2022/06/30 03:41:14;;;;;;;6.20;1.70;;;17.60;99.90;;;;;;4919156;29;20039;-80
2022/06/30 03:43:40;;;;;;;10.98;3.30;;;17.60;99.90;;;;;;4919333;29;20020;-80
2022/06/30 03:46:06;;;;;;;11.90;3.20;;;17.60;99.90;;;;;;4918881;29;20087;-80
2022/06/30 03:48:35;;;;;;;8.18;2.40;;;17.60;99.90;;;;;;4918013;29;20034;-80
2022/06/30 03:51:01;;;;;;;7.93;2.28;;;17.50;99.90;;;;;;4917721;29;20589;-80
2022/06/30 03:53:27;;;;;;;12.48;2.72;;;17.50;99.90;;;;;;4918461;29;20344;-80
2022/06/30 03:55:53;;;;;;;7.65;2.58;;;17.60;99.90;;;;;;4919396;29;20112;-80
2022/06/30 03:58:18;;;;;;;8.77;2.50;;;17.60;99.90;;;;;;4918447;29;20035;-80
2022/06/30 04:00:44;;;;;;;13.10;2.22;;;17.50;99.90;;;;;;4918547;29;20055;-80
2022/06/30 04:03:10;;;;;;;11.55;1.92;;;17.50;99.90;;;;;;4918842;29;20020;-81
2022/06/30 04:05:36;;;;;;;7.90;2.35;;;17.60;99.90;;;;;;4918692;29;20040;-81
2022/06/30 04:08:01;;;;;;;11.40;2.30;;;17.60;99.90;;;;;;4918535;29;20039;-81
2022/06/30 04:10:27;;;;;;;8.80;2.17;;;17.60;99.90;;;;;;4918532;29;20528;-81
2022/06/30 04:12:53;;;;;;;17.98;3.10;;;17.60;99.90;;;;;;4918748;29;20075;-80
2022/06/30 04:15:19;;;;;;;5.68;2.45;;;17.50;99.90;;;;;;4918555;29;20115;-81
2022/06/30 04:17:44;;;;;;;8.63;1.95;;;17.40;99.90;;;;;;4917801;29;20029;-80
2022/06/30 04:20:15;;;;;;;9.77;1.95;;;17.30;99.90;;;;;;4918903;29;20108;-79
2022/06/30 04:22:49;;;;;;;9.80;2.20;;;17.30;99.90;;;;;;4918193;29;20103;-79
2022/06/30 04:25:15;;;;;;;12.45;2.20;;;17.20;99.90;;;;;;4918307;29;20025;-79
2022/06/30 04:27:48;;;;;;;9.32;1.88;;;17.20;99.90;;;;;;4917587;29;20146;-80
2022/06/30 04:30:15;;;;;;;8.90;2.30;;;17.30;99.90;;;;;;4917396;29;20150;-81
2022/06/30 04:32:41;;;;;;;10.75;2.15;;;17.20;99.90;;;;;;4916782;29;20119;-81
2022/06/30 04:35:08;;;;;;;8.73;2.05;;;17.20;99.90;;;;;;4918475;29;20062;-80
2022/06/30 04:37:34;;;;;;;7.10;1.77;;;17.30;99.90;;;;;;4918004;29;20515;-80
2022/06/30 04:42:44;;;;;;;6.57;2.10;;;17.30;99.90;;;;;;4918183;29;20030;-80
2022/06/30 04:45:10;;;;;;;7.60;2.05;;;17.40;99.90;;;;;;4918251;29;20107;-80
2022/06/30 04:47:36;;;;;;;11.30;2.50;;;17.40;99.90;;;;;;4917766;29;20028;-80
2022/06/30 04:50:03;;;;;;;7.75;1.88;;;17.30;99.90;;;;;;4917516;29;20055;-81
2022/06/30 04:52:29;;;;;;;9.07;2.53;;;17.30;99.90;;;;;;4917613;29;20032;-80
2022/06/30 04:54:55;;;;;;;7.03;1.77;;;17.30;99.90;;;;;;4916175;29;20096;-80
2022/06/30 04:57:20;;;;;;;7.82;1.67;;;17.30;99.90;;;;;;4917420;29;20469;-80
2022/06/30 04:59:46;;;;;;;12.25;2.13;;;17.20;99.90;;;;;;4917535;29;20039;-81
2022/06/30 05:02:12;;;;;;;13.32;2.40;;;17.20;99.90;;;;;;4916924;29;20045;-80
2022/06/30 05:04:38;;;;;;;12.10;2.17;;;17.20;99.90;;;;;;4916793;29;20107;-80
2022/06/30 05:07:03;;;;;;;11.57;2.35;;;17.30;99.90;;;;;;4915482;29;20408;-78
2022/06/30 05:09:29;;;;;;;7.75;1.80;;;17.20;99.90;;;;;;4917207;29;20114;-79
2022/06/30 05:11:55;;;;;;;6.50;1.83;;;17.30;99.90;;;;;;4917731;29;20028;-79
2022/06/30 05:14:20;;;;;;;6.20;1.50;;;17.20;99.90;;;;;;4917338;29;20036;-80
2022/06/30 05:16:46;;;;;;;8.27;1.92;;;17.30;99.90;;;;;;4915892;29;20423;-79
2022/06/30 05:19:12;;;;;;;9.88;2.17;;;17.20;99.90;;;;;;4916767;29;20096;-78
2022/06/30 05:21:37;;;;;;;10.10;2.15;;;17.20;99.90;;;;;;4916809;29;20088;-78
2022/06/30 05:26:55;;;;;;;8.43;1.90;;;17.20;99.90;;;;;;4904605;29;20091;-78
2022/06/30 05:29:21;;;;;;;9.25;1.90;;;17.10;99.90;;;;;;4914521;29;20119;-78
2022/06/30 05:31:46;;;;;;;7.10;1.63;;;17.20;99.90;;;;;;4915093;29;20794;-78
2022/06/30 05:34:12;;;;;;;10.65;2.55;;;17.20;99.90;;;;;;4897801;29;20055;-78
2022/06/30 05:36:37;;;;;;;12.52;2.92;;;17.30;99.90;;;;;;4915029;29;20028;-78
2022/06/30 05:39:03;;;;;;;9.57;2.25;;;17.20;99.90;;;;;;4897796;29;20040;-79
2022/06/30 05:41:29;;;;;;;11.10;1.63;;;17.20;99.90;;;;;;4909278;29;20033;-78
2022/06/30 05:43:54;;;;;;;6.25;1.67;;;17.20;99.90;;;;;;4896516;29;20044;-78
2022/06/30 05:46:20;;;;;;;9.77;2.08;;;17.20;99.90;;;;;;4896346;29;20168;-78
2022/06/30 05:48:46;;;;;;;15.90;2.17;;;17.20;99.90;;;;;;4895917;29;20032;-78
2022/06/30 05:51:11;;;;;;;9.30;2.05;;;17.20;99.90;;;;;;4880206;29;20040;-78
2022/06/30 05:53:37;;;;;;;9.02;1.90;;;17.20;99.90;;;;;;4895989;29;20116;-79
2022/06/30 05:56:03;;;;;;;22.63;2.75;;;17.20;99.90;;;;;;4908927;29;20481;-78
2022/06/30 05:58:29;;;;;;;8.25;1.95;;;17.10;99.90;;;;;;4914278;29;20032;-78
2022/06/30 06:00:54;;;;;;;6.75;1.67;;;17.20;99.90;;;;;;4913671;29;20518;-78
2022/06/30 06:03:20;;;;;;;9.38;1.70;;;17.20;99.90;;;;;;4914382;29;20492;-78
2022/06/30 06:05:46;;;;;;;10.15;2.80;;;17.30;99.90;;;;;;4916624;29;20024;-78
2022/06/30 06:08:15;;;;;;;6.70;1.60;;;17.10;99.90;;;;;;4916427;29;20028;-78
2022/06/30 06:10:41;;;;;;;6.85;1.80;;;17.10;99.90;;;;;;4916934;29;20028;-78
2022/06/30 06:13:07;;;;;;;12.30;1.90;;;17.00;99.90;;;;;;4915503;29;20027;-78
2022/06/30 06:15:33;;;;;;;5.82;1.60;;;17.00;99.90;;;;;;4916370;29;20024;-78
2022/06/30 06:17:58;;;;;;;6.72;1.75;;;17.00;99.90;;;;;;4915917;29;20388;-78
2022/06/30 06:20:24;;;;;;;5.90;1.30;;;16.90;99.90;;;;;;4916335;29;20492;-78
2022/06/30 06:22:50;;;;;;;7.43;1.52;;;17.00;99.90;;;;;;4918617;29;20031;-78
2022/06/30 06:25:16;;;;;;;6.32;1.70;;;16.80;99.90;;;;;;4915635;29;20476;-78
2022/06/30 06:27:42;;;;;;;8.23;2.45;;;16.80;99.90;;;;;;4915440;29;20134;-79
2022/06/30 06:30:10;;;;;;;6.10;1.42;;;16.70;99.90;;;;;;4916384;29;20032;-79
2022/06/30 06:32:36;;;;;;;7.72;1.45;;;16.80;99.90;;;;;;4914879;29;20037;-79
2022/06/30 06:35:05;;;;;;;9.98;1.70;;;16.70;99.90;;;;;;4915654;29;20478;-80
2022/06/30 07:18:57;;;;;;;7.03;1.45;;;16.70;99.90;;;;;;5084131;23;20507;-79
2022/06/30 07:21:23;;;;;;;5.90;1.25;;;16.70;99.90;;;;;;4917880;29;20504;-79
2022/06/30 07:23:49;;;;;;;6.38;1.38;;;16.70;99.90;;;;;;4919942;29;20047;-77
2022/06/30 07:26:14;;;;;;;6.25;1.50;;;16.70;99.90;;;;;;4918883;29;20084;-79
2022/06/30 07:28:42;;;;;;;10.30;2.28;;;16.70;99.90;;;;;;4916127;29;20839;-78
2022/06/30 07:31:08;;;;;;;5.50;1.33;;;16.90;99.90;;;;;;4917123;29;20043;-79
2022/06/30 07:33:35;;;;;;;7.63;1.55;;;16.80;99.90;;;;;;4917841;29;20115;-79
2022/06/30 07:36:01;;;;;;;7.82;2.28;;;16.80;99.90;;;;;;4918606;29;21596;-79
2022/06/30 07:38:27;;;;;;;8.98;1.40;;;16.90;99.90;;;;;;4919023;29;20047;-79
2022/06/30 07:40:52;;;;;;;7.38;1.30;;;16.90;99.90;;;;;;4918491;29;20024;-79
2022/06/30 07:43:18;;;;;;;5.38;1.35;;;16.90;99.90;;;;;;4919238;29;20020;-79
2022/06/30 07:45:43;;;;;;;3.85;1.00;;;17.00;99.90;;;;;;4917974;29;20080;-78
2022/06/30 07:48:09;;;;;;;6.72;1.25;;;17.00;99.90;;;;;;4918311;29;20035;-79
2022/06/30 07:50:35;;;;;;;4.50;1.45;;;16.90;99.90;;;;;;4917529;29;20032;-79
2022/06/30 07:53:00;;;;;;;6.43;1.33;;;17.00;99.90;;;;;;4918338;29;20106;-79
2022/06/30 07:55:26;;;;;;;7.13;1.50;;;17.00;99.90;;;;;;4918566;29;20040;-79
2022/06/30 07:57:52;;;;;;;5.32;1.35;;;17.00;99.90;;;;;;4917313;29;20035;-79
2022/06/30 08:00:24;;;;;;;5.30;1.08;;;16.90;99.90;;;;;;4917062;29;20064;-79
2022/06/30 08:02:50;;;;;;;;;;;16.80;99.90;;;;;;4919014;29;20016;-79
2022/06/30 08:05:15;;;;;;;3.35;1.17;;;16.90;99.90;;;;;;4914816;29;19997;-79
2022/06/30 08:07:41;;;;;;;6.93;1.38;;;16.90;99.90;;;;;;4917308;29;20111;-79
2022/06/30 08:10:07;;;;;;;7.28;1.70;;;16.80;99.90;;;;;;4917185;29;20024;-79
2022/06/30 08:12:34;;;;;;;5.40;1.25;;;16.90;99.90;;;;;;4929498;29;20111;-79
2022/06/30 08:15:00;;;;;;;6.32;1.05;;;16.90;99.90;;;;;;4918168;29;20058;-79
2022/06/30 08:17:27;;;;;;;8.05;1.15;;;16.80;99.90;;;;;;4917782;29;20059;-79
2022/06/30 08:19:53;;;;;;;3.97;1.30;;;16.80;99.90;;;;;;4918072;29;20027;-79
2022/06/30 08:22:19;;;;;;;10.48;1.38;;;16.80;99.90;;;;;;4914953;29;20028;-79
2022/06/30 08:24:45;;;;;;;7.07;1.50;;;16.70;99.90;;;;;;4918641;29;20016;-79
2022/06/30 08:27:10;;;;;;;4.22;1.30;;;16.70;99.90;;;;;;4917976;29;20032;-79
2022/06/30 08:29:36;;;;;;;25.48;9.05;;;16.70;99.90;;;;;;4917899;29;20024;-79
2022/06/30 08:32:03;;;;;;;3.55;1.02;;;16.70;99.90;;;;;;4916780;29;20032;-79
2022/06/30 08:34:29;;;;;;;5.88;2.03;;;16.70;99.90;;;;;;4918328;29;20076;-79
2022/06/30 08:36:55;;;;;;;4.95;1.40;;;16.80;99.90;;;;;;4917347;29;20039;-79
2022/06/30 08:42:06;;;;;;;3.83;1.17;;;16.70;99.90;;;;;;4918228;29;20047;-79
2022/06/30 08:44:34;;;;;;;10.15;1.60;;;16.70;99.90;;;;;;4917763;29;20021;-79
2022/06/30 08:47:01;;;;;;;6.63;1.30;;;16.70;99.90;;;;;;4917260;29;20032;-79
2022/06/30 08:49:27;;;;;;;3.60;1.05;;;16.70;99.90;;;;;;4924483;29;20039;-79
2022/06/30 08:51:57;;;;;;;10.40;1.63;;;16.80;99.90;;;;;;4934331;29;20034;-79
2022/06/30 08:54:25;;;;;;;3.50;1.13;;;16.90;99.90;;;;;;4927845;29;20388;-79
2022/06/30 08:56:53;;;;;;;4.90;1.25;;;17.00;99.90;;;;;;4920383;29;20119;-79
2022/06/30 08:59:20;;;;;;;5.93;1.00;;;17.10;99.90;;;;;;4917230;29;20547;-79
2022/06/30 09:01:46;;;;;;;10.27;1.70;;;17.10;99.90;;;;;;4917186;29;20412;-79
2022/06/30 09:04:13;;;;;;;5.03;1.27;;;17.30;99.90;;;;;;4917871;29;20079;-79
2022/06/30 09:06:42;;;;;;;12.07;1.58;;;17.20;99.90;;;;;;4919570;29;20038;-78
2022/06/30 09:09:08;;;;;;;5.50;1.30;;;17.30;99.90;;;;;;4923118;29;20107;-79
2022/06/30 09:11:51;;;;;;;6.68;1.58;;;17.20;99.90;;;;;;4917090;29;20638;-79
2022/06/30 09:14:35;;;;;;;6.20;1.27;;;17.20;99.90;;;;;;4916791;29;20101;-79
2022/06/30 09:17:02;;;;;;;6.80;1.30;;;17.10;99.90;;;;;;4909175;29;20068;-78
2022/06/30 09:19:30;;;;;;;9.20;1.25;;;17.30;99.90;;;;;;4917043;29;20028;-79
2022/06/30 09:22:10;;;;;;;7.95;1.55;;;17.40;99.90;;;;;;4916404;29;20028;-79
2022/06/30 09:24:36;;;;;;;4.70;1.17;;;17.50;99.90;;;;;;4915260;29;20020;-78
2022/06/30 09:27:17;;;;;;;8.90;1.30;;;17.40;99.90;;;;;;4916283;29;20407;-79
2022/06/30 09:29:46;;;;;;;7.80;1.48;;;17.60;99.90;;;;;;4931617;29;20028;-79
2022/06/30 09:32:12;;;;;;;8.07;1.42;;;17.60;99.90;;;;;;4916037;29;20032;-79
2022/06/30 09:34:38;;;;;;;5.05;1.38;;;17.70;99.90;;;;;;4914640;29;20376;-78
2022/06/30 09:37:19;;;;;;;8.48;1.75;;;17.80;99.90;;;;;;4915185;29;20552;-78
2022/06/30 09:39:46;;;;;;;5.90;1.25;;;18.00;99.90;;;;;;4916101;29;20024;-79
2022/06/30 09:42:12;;;;;;;6.97;1.42;;;18.10;99.90;;;;;;4916227;29;20107;-79
2022/06/30 09:44:38;;;;;;;7.13;1.17;;;18.10;99.90;;;;;;4917376;29;20088;-79
2022/06/30 09:47:10;;;;;;;5.15;1.13;;;18.30;99.90;;;;;;4916447;29;20106;-79
2022/06/30 09:49:41;;;;;;;5.30;1.75;;;18.40;99.90;;;;;;4915499;29;20028;-77
2022/06/30 09:52:19;;;;;;;9.67;2.13;;;18.40;99.90;;;;;;4916177;29;20028;-78
2022/06/30 09:55:06;;;;;;;3.33;0.85;;;18.50;99.90;;;;;;4921955;29;20260;-80
2022/06/30 09:57:52;;;;;;;3.75;1.10;;;18.30;99.90;;;;;;4919609;29;20031;-79
2022/06/30 10:00:18;;;;;;;5.72;1.20;;;18.40;99.90;;;;;;4914763;29;20047;-78
2022/06/30 10:02:51;;;;;;;5.60;1.17;;;18.50;99.90;;;;;;4916100;29;20035;-79
2022/06/30 10:05:19;;;;;;;4.97;1.30;;;18.20;99.90;;;;;;4915013;29;20032;-79
2022/06/30 10:07:45;;;;;;;3.55;1.13;;;18.20;99.90;;;;;;4916354;29;20079;-78
2022/06/30 10:10:14;;;;;;;2.72;1.30;;;18.10;99.90;;;;;;4916608;29;20036;-79
2022/06/30 10:12:43;;;;;;;7.20;1.42;;;18.10;99.90;;;;;;4919095;29;20115;-78
2022/06/30 10:15:11;;;;;;;7.95;1.35;;;18.00;99.90;;;;;;4912549;29;20515;-79
2022/06/30 10:17:45;;;;;;;5.53;0.82;;;17.90;99.90;;;;;;4915295;29;20095;-79
2022/06/30 10:20:11;;;;;;;3.65;0.95;;;17.90;99.90;;;;;;4896841;29;20398;-78
2022/06/30 15:17:17;;;;;;;7.68;1.10;;;17.70;99.90;;;;;;5853717;23;20121;-78
2022/06/30 15:19:44;;;;;;;4.82;1.10;;;17.80;99.90;;;;;;4918903;29;20040;-78
2022/06/30 15:24:53;;;;;;;2.38;1.00;;;17.60;99.90;;;;;;4919287;29;20152;-77
2022/06/30 15:27:19;;;;;;;4.60;1.42;;;17.70;99.90;;;;;;4919184;29;20111;-77
2022/06/30 15:29:48;;;;;;;4.68;1.10;;;17.80;99.90;;;;;;4918827;29;20087;-77
2022/06/30 15:32:19;;;;;;;3.97;1.17;;;17.80;99.90;;;;;;4918512;29;20032;-76
2022/06/30 15:34:50;;;;;;;5.20;1.50;;;17.80;99.90;;;;;;4909050;29;20031;-76
2022/06/30 15:37:16;;;;;;;6.18;1.08;;;17.90;99.90;;;;;;4917729;29;20488;-76
2022/06/30 15:39:43;;;;;;;3.97;0.93;;;17.90;99.90;;;;;;4919371;29;20111;-77
2022/06/30 15:42:11;;;;;;;4.55;1.30;;;17.90;99.90;;;;;;4918089;29;20050;-76
2022/06/30 15:44:48;;;;;;;3.58;1.50;;;17.70;99.90;;;;;;4915095;29;20611;-76
2022/06/30 15:47:14;;;;;;;5.00;1.38;;;17.60;99.90;;;;;;4914205;29;20382;-79
2022/06/30 15:49:40;;;;;;;5.30;1.55;;;17.30;99.90;;;;;;4916373;29;20028;-78
2022/06/30 15:52:06;;;;;;;6.60;1.77;;;17.30;99.90;;;;;;4918010;29;20034;-78
2022/06/30 15:54:32;;;;;;;8.15;2.03;;;17.30;99.90;;;;;;4917669;29;20069;-78
2022/06/30 15:56:59;;;;;;;5.13;1.27;;;17.20;99.90;;;;;;4917246;29;20043;-78
2022/06/30 15:59:27;;;;;;;6.80;1.70;;;17.10;99.90;;;;;;4917601;29;20111;-78
2022/06/30 16:01:54;;;;;;;5.45;1.20;;;17.00;99.90;;;;;;4917537;29;20028;-77
2022/06/30 16:04:20;;;;;;;4.78;1.60;;;17.10;99.90;;;;;;4916844;29;20028;-77
2022/06/30 16:06:46;;;;;;;11.38;1.80;;;17.20;99.90;;;;;;4917876;29;20040;-78
2022/06/30 16:09:12;;;;;;;3.58;1.25;;;17.20;99.90;;;;;;4918059;29;20691;-78
2022/06/30 16:11:38;;;;;;;6.93;1.77;;;17.20;99.90;;;;;;4908745;29;20037;-78
2022/06/30 16:14:04;;;;;;;8.60;1.30;;;17.00;99.90;;;;;;4909491;29;20063;-79
2022/06/30 16:16:30;;;;;;;4.03;1.17;;;17.10;99.90;;;;;;4912123;29;20103;-78
2022/06/30 16:18:57;;;;;;;3.65;1.20;;;17.10;99.90;;;;;;4916537;29;20040;-78
2022/06/30 16:21:23;;;;;;;5.05;1.50;;;17.20;99.90;;;;;;4916972;29;20046;-78
2022/06/30 16:23:48;;;;;;;4.68;1.80;;;17.20;99.90;;;;;;4916151;29;20027;-78
2022/06/30 16:26:14;;;;;;;3.45;1.33;;;17.20;99.90;;;;;;4916815;29;20416;-78
2022/06/30 16:28:40;;;;;;;6.47;1.40;;;17.30;99.90;;;;;;4917811;29;20024;-78
2022/06/30 16:31:07;;;;;;;7.10;1.88;;;17.50;99.90;;;;;;4917288;29;20039;-78
2022/06/30 16:33:34;;;;;;;8.32;1.58;;;17.60;99.90;;;;;;4917556;29;20052;-78
2022/06/30 16:35:59;;;;;;;3.28;1.20;;;17.60;99.90;;;;;;4917617;29;20036;-78
2022/06/30 16:38:26;;;;;;;5.35;1.55;;;17.70;99.90;;;;;;4917196;29;20032;-78
2022/06/30 16:40:52;;;;;;;5.03;1.50;;;17.70;99.90;;;;;;4917492;29;20111;-78
2022/06/30 16:43:20;;;;;;;7.32;1.55;;;17.80;99.90;;;;;;4916120;29;20119;-78
2022/06/30 16:45:46;;;;;;;6.20;1.85;;;17.90;99.90;;;;;;4917827;29;20028;-78
2022/06/30 16:48:12;;;;;;;7.60;2.20;;;18.00;99.90;;;;;;4917345;29;20483;-78
2022/06/30 16:50:38;;;;;;;8.65;1.98;;;17.90;99.90;;;;;;4917529;29;20036;-77
2022/06/30 16:53:03;;;;;;;4.72;1.10;;;17.90;99.90;;;;;;4917227;29;20027;-78
2022/06/30 16:55:30;;;;;;;4.07;1.10;;;17.80;99.90;;;;;;4917643;29;20516;-77
2022/06/30 16:57:57;;;;;;;4.50;1.15;;;17.90;99.90;;;;;;4912921;29;20111;-78
2022/06/30 17:00:23;;;;;;;5.40;0.90;;;17.80;99.90;;;;;;4915952;29;20028;-78
2022/06/30 17:02:48;;;;;;;3.00;1.02;;;17.70;99.90;;;;;;4915994;29;20016;-78
2022/06/30 17:05:14;;;;;;;6.00;1.25;;;17.70;99.90;;;;;;4917628;29;20511;-78
2022/06/30 17:07:40;;;;;;;7.75;2.13;;;17.70;99.90;;;;;;4916951;29;20025;-78
2022/06/30 17:10:06;;;;;;;5.32;1.10;;;17.70;99.90;;;;;;4915629;29;20428;-78
2022/06/30 17:12:31;;;;;;;6.72;1.27;;;17.70;99.90;;;;;;4917193;29;20024;-78
2022/06/30 17:14:58;;;;;;;4.63;1.40;;;17.70;99.90;;;;;;4908039;29;20024;-78
2022/06/30 17:17:24;;;;;;;4.03;1.20;;;17.70;99.90;;;;;;4915447;29;20511;-78
2022/06/30 17:19:50;;;;;;;3.10;0.90;;;17.80;99.90;;;;;;4915871;29;20385;-77
2022/06/30 17:22:16;;;;;;;5.53;1.30;;;17.80;99.90;;;;;;4915585;29;20044;-80
2022/06/30 17:24:42;;;;;;;4.40;1.00;;;17.80;99.90;;;;;;4915833;29;20027;-78
2022/06/30 17:27:08;;;;;;;4.18;1.05;;;17.80;99.90;;;;;;4916126;29;20024;-77
2022/06/30 17:29:34;;;;;;;4.00;1.00;;;17.90;99.90;;;;;;4915779;29;20060;-77
2022/06/30 17:32:00;;;;;;;4.75;1.17;;;17.90;99.90;;;;;;4917095;29;20496;-77
2022/06/30 17:34:28;;;;;;;2.92;1.00;;;17.90;99.90;;;;;;4916096;29;20020;-78
2022/06/30 17:36:55;;;;;;;2.03;1.10;;;17.90;99.90;;;;;;4916971;29;20023;-79
2022/06/30 17:39:21;;;;;;;8.52;1.27;;;17.90;99.90;;;;;;4915876;29;20116;-78
2022/06/30 17:41:49;;;;;;;7.65;1.15;;;17.80;99.90;;;;;;4916442;29;20111;-79
2022/06/30 17:44:16;;;;;;;3.40;1.10;;;17.80;99.90;;;;;;4915621;29;20024;-78
2022/06/30 17:46:42;;;;;;;2.67;1.00;;;17.70;99.90;;;;;;4916392;29;20115;-78
2022/06/30 17:49:08;;;;;;;4.43;1.48;;;17.70;99.90;;;;;;4915605;29;20484;-77
2022/06/30 17:51:34;;;;;;;3.83;1.17;;;17.70;99.90;;;;;;4916236;29;20024;-79
2022/06/30 17:54:00;;;;;;;5.05;1.23;;;17.70;99.90;;;;;;4915623;29;20115;-81
2022/06/30 17:56:25;;;;;;;6.60;1.55;;;17.70;99.90;;;;;;4915182;29;20119;-78
2022/06/30 17:58:51;;;;;;;4.47;1.10;;;17.70;99.90;;;;;;4906777;29;20036;-79
2022/06/30 18:01:17;;;;;;;3.33;1.17;;;17.70;99.90;;;;;;4905681;29;20555;-78
2022/06/30 18:03:45;;;;;;;5.82;1.38;;;17.70;99.90;;;;;;4905612;29;20024;-77
2022/06/30 18:11:14;;;;;;;6.10;1.27;;;17.60;99.90;;;;;;4905545;29;20032;-78
2022/06/30 18:11:40;;;;;;;7.20;1.35;;;17.60;99.90;;;;;;4907385;29;20118;-79
2022/06/30 18:14:08;;;;;;;5.90;1.23;;;17.60;99.90;;;;;;4911446;29;20036;-78
2022/06/30 18:16:34;;;;;;;8.95;1.30;;;17.60;99.90;;;;;;4909026;29;20611;-80
2022/06/30 18:18:59;;;;;;;3.67;1.10;;;17.60;99.90;;;;;;4910308;29;20127;-78
2022/06/30 18:21:25;;;;;;;2.97;1.23;;;17.60;99.90;;;;;;4909950;29;20040;-79
2022/06/30 18:23:50;;;;;;;5.88;1.13;;;17.60;99.90;;;;;;4910415;29;20035;-74
2022/06/30 18:26:16;;;;;;;5.13;1.33;;;17.60;99.90;;;;;;4906582;29;20527;-74
2022/06/30 18:28:42;;;;;;;6.70;1.00;;;17.70;99.90;;;;;;4900980;29;20481;-76
2022/06/30 18:31:08;;;;;;;1.95;0.82;;;17.70;99.90;;;;;;4903198;29;20020;-78
2022/06/30 18:33:34;;;;;;;2.58;1.00;;;17.70;99.90;;;;;;4907356;29;20032;-77
2022/06/30 18:36:00;;;;;;;6.60;1.27;;;17.70;99.90;;;;;;4905467;29;20052;-80
2022/06/30 18:38:26;;;;;;;6.60;1.20;;;17.70;99.90;;;;;;4903055;29;20123;-78